sensor_id;sensor_type;location;lat;lon;timestamp;pressure;altitude;pressure_sealevel;temperature;humidity
26376;BME280;30544;42.196;24.336;2023-04-06T00:00:33;98960.19;;;5.26;nan
26376;BME280;30544;42.196;24.336;2023-04-06T00:03:00;98968.91;;;5.17;nan
26376;BME280;30544;42.196;24.336;2023-04-06T00:05:27;98963.19;;;5.25;nan
26376;BME280;30544;42.196;24.336;2023-04-06T00:07:56;98963.34;;;5.30;nan
26376;BME280;30544;42.196;24.336;2023-04-06T00:10:23;98963.81;;;5.20;nan
26376;BME280;30544;42.196;24.336;2023-04-06T00:12:52;98957.69;;;5.18;nan
26376;BME280;30544;42.196;24.336;2023-04-06T00:15:20;98961.28;;;5.19;nan
26376;BME280;30544;42.196;24.336;2023-04-06T00:17:46;98958.84;;;5.42;nan
26376;BME280;30544;42.196;24.336;2023-04-06T00:20:13;98952.06;;;5.44;nan
26376;BME280;30544;42.196;24.336;2023-04-06T00:22:40;98950.09;;;5.52;nan
26376;BME280;30544;42.196;24.336;2023-04-06T00:25:08;98941.00;;;5.51;nan
26376;BME280;30544;42.196;24.336;2023-04-06T00:27:35;98934.00;;;5.55;nan
26376;BME280;30544;42.196;24.336;2023-04-06T00:30:04;98932.41;;;5.41;nan
26376;BME280;30544;42.196;24.336;2023-04-06T00:32:31;98932.81;;;5.44;nan
26376;BME280;30544;42.196;24.336;2023-04-06T00:34:58;98931.34;;;5.42;nan
26376;BME280;30544;42.196;24.336;2023-04-06T00:37:25;98926.19;;;5.52;nan
26376;BME280;30544;42.196;24.336;2023-04-06T00:39:52;98928.09;;;5.52;nan
26376;BME280;30544;42.196;24.336;2023-04-06T00:42:20;98927.31;;;5.44;nan
26376;BME280;30544;42.196;24.336;2023-04-06T00:44:51;98932.84;;;5.38;nan
26376;BME280;30544;42.196;24.336;2023-04-06T00:47:20;98921.94;;;5.25;nan
26376;BME280;30544;42.196;24.336;2023-04-06T00:49:48;98923.22;;;5.16;nan
26376;BME280;30544;42.196;24.336;2023-04-06T00:52:15;98918.78;;;5.21;nan
26376;BME280;30544;42.196;24.336;2023-04-06T00:54:42;98914.22;;;5.40;nan
26376;BME280;30544;42.196;24.336;2023-04-06T00:57:09;98921.09;;;5.24;nan
26376;BME280;30544;42.196;24.336;2023-04-06T00:59:37;98915.44;;;5.12;nan
26376;BME280;30544;42.196;24.336;2023-04-06T01:02:03;98910.09;;;5.24;nan
26376;BME280;30544;42.196;24.336;2023-04-06T01:04:32;98916.06;;;5.14;nan
26376;BME280;30544;42.196;24.336;2023-04-06T01:07:00;98914.19;;;5.08;nan
26376;BME280;30544;42.196;24.336;2023-04-06T01:09:27;98903.03;;;4.97;nan
26376;BME280;30544;42.196;24.336;2023-04-06T01:11:54;98911.00;;;5.11;nan
26376;BME280;30544;42.196;24.336;2023-04-06T01:14:22;98908.13;;;4.93;nan
26376;BME280;30544;42.196;24.336;2023-04-06T01:16:49;98904.38;;;4.81;nan
26376;BME280;30544;42.196;24.336;2023-04-06T01:19:16;98909.66;;;4.82;nan
26376;BME280;30544;42.196;24.336;2023-04-06T01:21:44;98897.75;;;4.95;nan
26376;BME280;30544;42.196;24.336;2023-04-06T01:24:13;98899.22;;;4.98;nan
26376;BME280;30544;42.196;24.336;2023-04-06T01:26:40;98898.31;;;5.10;nan
26376;BME280;30544;42.196;24.336;2023-04-06T01:29:07;98898.16;;;5.05;nan
26376;BME280;30544;42.196;24.336;2023-04-06T01:31:33;98891.47;;;5.20;nan
26376;BME280;30544;42.196;24.336;2023-04-06T01:34:00;98890.13;;;5.04;nan
26376;BME280;30544;42.196;24.336;2023-04-06T01:36:27;98883.06;;;5.14;nan
26376;BME280;30544;42.196;24.336;2023-04-06T01:38:54;98890.53;;;5.01;nan
26376;BME280;30544;42.196;24.336;2023-04-06T01:41:22;98882.34;;;4.94;nan
26376;BME280;30544;42.196;24.336;2023-04-06T01:43:49;98880.78;;;4.67;nan
26376;BME280;30544;42.196;24.336;2023-04-06T01:46:19;98880.44;;;4.43;nan
26376;BME280;30544;42.196;24.336;2023-04-06T01:48:46;98877.38;;;4.71;nan
26376;BME280;30544;42.196;24.336;2023-04-06T01:51:13;98885.19;;;4.74;nan
26376;BME280;30544;42.196;24.336;2023-04-06T01:53:40;98879.28;;;4.71;nan
26376;BME280;30544;42.196;24.336;2023-04-06T01:56:07;98875.75;;;4.50;nan
26376;BME280;30544;42.196;24.336;2023-04-06T01:58:35;98876.25;;;4.34;nan
26376;BME280;30544;42.196;24.336;2023-04-06T02:01:02;98864.41;;;4.34;nan
26376;BME280;30544;42.196;24.336;2023-04-06T02:03:29;98874.13;;;4.36;nan
26376;BME280;30544;42.196;24.336;2023-04-06T02:05:56;98872.69;;;4.27;nan
26376;BME280;30544;42.196;24.336;2023-04-06T02:08:23;98865.31;;;4.14;nan
26376;BME280;30544;42.196;24.336;2023-04-06T02:10:50;98865.75;;;4.11;nan
26376;BME280;30544;42.196;24.336;2023-04-06T02:13:17;98861.50;;;4.22;nan
26376;BME280;30544;42.196;24.336;2023-04-06T02:15:45;98861.50;;;4.22;nan
26376;BME280;30544;42.196;24.336;2023-04-06T02:18:12;98871.66;;;4.15;nan
26376;BME280;30544;42.196;24.336;2023-04-06T02:20:39;98866.94;;;4.35;nan
26376;BME280;30544;42.196;24.336;2023-04-06T02:23:07;98867.63;;;4.24;nan
26376;BME280;30544;42.196;24.336;2023-04-06T02:25:34;98865.50;;;4.19;nan
26376;BME280;30544;42.196;24.336;2023-04-06T02:28:01;98871.66;;;4.15;nan
26376;BME280;30544;42.196;24.336;2023-04-06T02:30:27;98864.00;;;4.30;nan
26376;BME280;30544;42.196;24.336;2023-04-06T02:32:56;98866.19;;;4.08;nan
26376;BME280;30544;42.196;24.336;2023-04-06T02:35:24;98867.91;;;3.89;nan
26376;BME280;30544;42.196;24.336;2023-04-06T02:37:51;98873.78;;;4.06;nan
26376;BME280;30544;42.196;24.336;2023-04-06T02:40:18;98877.13;;;4.15;nan
26376;BME280;30544;42.196;24.336;2023-04-06T02:42:45;98878.19;;;4.27;nan
26376;BME280;30544;42.196;24.336;2023-04-06T02:45:12;98875.00;;;4.37;nan
26376;BME280;30544;42.196;24.336;2023-04-06T02:47:39;98877.06;;;4.35;nan
26376;BME280;30544;42.196;24.336;2023-04-06T02:50:08;98873.75;;;4.26;nan
26376;BME280;30544;42.196;24.336;2023-04-06T02:52:35;98875.22;;;4.29;nan
26376;BME280;30544;42.196;24.336;2023-04-06T02:55:04;98874.19;;;4.10;nan
26376;BME280;30544;42.196;24.336;2023-04-06T02:57:33;98869.53;;;4.23;nan
26376;BME280;30544;42.196;24.336;2023-04-06T03:00:00;98870.00;;;4.07;nan
26376;BME280;30544;42.196;24.336;2023-04-06T03:02:27;98868.53;;;3.91;nan
26376;BME280;30544;42.196;24.336;2023-04-06T03:04:54;98868.84;;;4.35;nan
26376;BME280;30544;42.196;24.336;2023-04-06T03:07:22;98877.31;;;4.33;nan
26376;BME280;30544;42.196;24.336;2023-04-06T03:09:49;98874.13;;;4.36;nan
26376;BME280;30544;42.196;24.336;2023-04-06T03:12:16;98875.41;;;4.40;nan
26376;BME280;30544;42.196;24.336;2023-04-06T03:14:43;98877.06;;;4.41;nan
26376;BME280;30544;42.196;24.336;2023-04-06T03:17:10;98866.91;;;4.48;nan
26376;BME280;30544;42.196;24.336;2023-04-06T03:19:37;98867.47;;;4.64;nan
26376;BME280;30544;42.196;24.336;2023-04-06T03:22:04;98875.25;;;4.73;nan
26376;BME280;30544;42.196;24.336;2023-04-06T03:24:32;98868.94;;;4.73;nan
26376;BME280;30544;42.196;24.336;2023-04-06T03:26:59;98867.03;;;4.67;nan
26376;BME280;30544;42.196;24.336;2023-04-06T03:29:26;98865.28;;;4.79;nan
26376;BME280;30544;42.196;24.336;2023-04-06T03:31:53;98870.78;;;4.79;nan
26376;BME280;30544;42.196;24.336;2023-04-06T03:34:20;98871.50;;;4.61;nan
26376;BME280;30544;42.196;24.336;2023-04-06T03:36:47;98871.91;;;4.65;nan
26376;BME280;30544;42.196;24.336;2023-04-06T03:39:14;98874.06;;;4.56;nan
26376;BME280;30544;42.196;24.336;2023-04-06T03:41:42;98867.47;;;4.64;nan
26376;BME280;30544;42.196;24.336;2023-04-06T03:44:10;98874.28;;;4.48;nan
26376;BME280;30544;42.196;24.336;2023-04-06T03:46:37;98874.34;;;4.41;nan
26376;BME280;30544;42.196;24.336;2023-04-06T03:49:04;98873.91;;;4.44;nan
26376;BME280;30544;42.196;24.336;2023-04-06T03:51:31;98882.97;;;4.45;nan
26376;BME280;30544;42.196;24.336;2023-04-06T03:53:58;98882.56;;;4.41;nan
26376;BME280;30544;42.196;24.336;2023-04-06T03:56:25;98878.34;;;4.39;nan
26376;BME280;30544;42.196;24.336;2023-04-06T03:58:53;98889.72;;;4.49;nan
26376;BME280;30544;42.196;24.336;2023-04-06T04:01:20;98889.75;;;4.36;nan
26376;BME280;30544;42.196;24.336;2023-04-06T04:03:47;98883.22;;;4.30;nan
26376;BME280;30544;42.196;24.336;2023-04-06T04:06:14;98880.94;;;4.20;nan
26376;BME280;30544;42.196;24.336;2023-04-06T04:08:41;98881.09;;;4.39;nan
26376;BME280;30544;42.196;24.336;2023-04-06T04:11:08;98886.38;;;4.40;nan
26376;BME280;30544;42.196;24.336;2023-04-06T04:13:35;98887.03;;;4.29;nan
26376;BME280;30544;42.196;24.336;2023-04-06T04:16:03;98889.56;;;4.37;nan
26376;BME280;30544;42.196;24.336;2023-04-06T04:18:30;98889.31;;;4.45;nan
26376;BME280;30544;42.196;24.336;2023-04-06T04:20:57;98891.41;;;4.57;nan
26376;BME280;30544;42.196;24.336;2023-04-06T04:23:24;98890.50;;;4.63;nan
26376;BME280;30544;42.196;24.336;2023-04-06T04:25:51;98891.47;;;4.81;nan
26376;BME280;30544;42.196;24.336;2023-04-06T04:28:18;98894.56;;;4.98;nan
26376;BME280;30544;42.196;24.336;2023-04-06T04:30:45;98890.69;;;5.12;nan
26376;BME280;30544;42.196;24.336;2023-04-06T04:33:13;98895.03;;;4.95;nan
26376;BME280;30544;42.196;24.336;2023-04-06T04:35:40;98891.44;;;4.95;nan
26376;BME280;30544;42.196;24.336;2023-04-06T04:38:07;98884.47;;;4.86;nan
26376;BME280;30544;42.196;24.336;2023-04-06T04:40:34;98890.75;;;4.99;nan
26376;BME280;30544;42.196;24.336;2023-04-06T04:43:01;98890.25;;;5.16;nan
26376;BME280;30544;42.196;24.336;2023-04-06T04:45:28;98890.53;;;5.07;nan
26376;BME280;30544;42.196;24.336;2023-04-06T04:47:55;98883.97;;;5.02;nan
26376;BME280;30544;42.196;24.336;2023-04-06T04:50:23;98878.47;;;5.08;nan
26376;BME280;30544;42.196;24.336;2023-04-06T04:52:50;98887.63;;;5.27;nan
26376;BME280;30544;42.196;24.336;2023-04-06T04:55:17;98888.41;;;5.41;nan
26376;BME280;30544;42.196;24.336;2023-04-06T04:57:44;98888.28;;;5.54;nan
26376;BME280;30544;42.196;24.336;2023-04-06T05:00:12;98892.34;;;5.77;nan
26376;BME280;30544;42.196;24.336;2023-04-06T05:02:39;98888.00;;;5.94;nan
26376;BME280;30544;42.196;24.336;2023-04-06T05:05:07;98884.81;;;6.15;nan
26376;BME280;30544;42.196;24.336;2023-04-06T05:07:35;98888.00;;;5.87;nan
26376;BME280;30544;42.196;24.336;2023-04-06T05:10:03;98878.44;;;5.71;nan
26376;BME280;30544;42.196;24.336;2023-04-06T05:12:29;98879.75;;;5.62;nan
26376;BME280;30544;42.196;24.336;2023-04-06T05:14:56;98884.72;;;5.79;nan
26376;BME280;30544;42.196;24.336;2023-04-06T05:17:23;98885.94;;;5.83;nan
26376;BME280;30544;42.196;24.336;2023-04-06T05:19:51;98875.31;;;5.61;nan
26376;BME280;30544;42.196;24.336;2023-04-06T05:22:17;98874.50;;;5.61;nan
26376;BME280;30544;42.196;24.336;2023-04-06T05:24:46;98883.47;;;5.74;nan
26376;BME280;30544;42.196;24.336;2023-04-06T05:27:13;98876.69;;;5.77;nan
26376;BME280;30544;42.196;24.336;2023-04-06T05:29:40;98868.75;;;5.87;nan
26376;BME280;30544;42.196;24.336;2023-04-06T05:32:07;98875.69;;;5.96;nan
26376;BME280;30544;42.196;24.336;2023-04-06T05:34:34;98872.56;;;5.86;nan
26376;BME280;30544;42.196;24.336;2023-04-06T05:37:01;98865.78;;;5.89;nan
26376;BME280;30544;42.196;24.336;2023-04-06T05:39:31;98870.88;;;5.92;nan
26376;BME280;30544;42.196;24.336;2023-04-06T05:42:03;98867.97;;;5.80;nan
26376;BME280;30544;42.196;24.336;2023-04-06T05:44:30;98867.59;;;6.01;nan
26376;BME280;30544;42.196;24.336;2023-04-06T05:46:57;98860.84;;;5.97;nan
26376;BME280;30544;42.196;24.336;2023-04-06T05:49:24;98858.78;;;5.93;nan
26376;BME280;30544;42.196;24.336;2023-04-06T05:51:51;98855.69;;;6.08;nan
26376;BME280;30544;42.196;24.336;2023-04-06T05:54:17;98848.25;;;6.08;nan
26376;BME280;30544;42.196;24.336;2023-04-06T05:56:44;98841.53;;;6.41;nan
26376;BME280;30544;42.196;24.336;2023-04-06T05:59:13;98841.38;;;6.36;nan
26376;BME280;30544;42.196;24.336;2023-04-06T06:01:40;98848.13;;;6.40;nan
26376;BME280;30544;42.196;24.336;2023-04-06T06:04:07;98846.09;;;6.65;nan
26376;BME280;30544;42.196;24.336;2023-04-06T06:06:34;98847.31;;;6.69;nan
26376;BME280;30544;42.196;24.336;2023-04-06T06:09:01;98844.78;;;6.68;nan
26376;BME280;30544;42.196;24.336;2023-04-06T06:11:28;98846.47;;;6.69;nan
26376;BME280;30544;42.196;24.336;2023-04-06T06:13:55;98845.38;;;6.88;nan
26376;BME280;30544;42.196;24.336;2023-04-06T06:16:24;98844.59;;;6.99;nan
26376;BME280;30544;42.196;24.336;2023-04-06T06:18:50;98843.22;;;7.20;nan
26376;BME280;30544;42.196;24.336;2023-04-06T06:21:17;98828.22;;;7.16;nan
26376;BME280;30544;42.196;24.336;2023-04-06T06:23:44;98829.06;;;7.16;nan
26376;BME280;30544;42.196;24.336;2023-04-06T06:26:13;98828.50;;;7.26;nan
26376;BME280;30544;42.196;24.336;2023-04-06T06:28:40;98836.63;;;7.21;nan
26376;BME280;30544;42.196;24.336;2023-04-06T06:31:07;98820.47;;;7.36;nan
26376;BME280;30544;42.196;24.336;2023-04-06T06:33:35;98817.47;;;7.26;nan
26376;BME280;30544;42.196;24.336;2023-04-06T06:36:02;98823.84;;;7.38;nan
26376;BME280;30544;42.196;24.336;2023-04-06T06:38:29;98815.72;;;7.67;nan
26376;BME280;30544;42.196;24.336;2023-04-06T06:40:56;98811.66;;;7.81;nan
26376;BME280;30544;42.196;24.336;2023-04-06T06:43:23;98821.97;;;7.62;nan
26376;BME280;30544;42.196;24.336;2023-04-06T06:45:50;98815.63;;;7.73;nan
26376;BME280;30544;42.196;24.336;2023-04-06T06:48:17;98810.44;;;8.00;nan
26376;BME280;30544;42.196;24.336;2023-04-06T06:50:47;98810.56;;;8.05;nan
26376;BME280;30544;42.196;24.336;2023-04-06T06:53:14;98812.28;;;8.06;nan
26376;BME280;30544;42.196;24.336;2023-04-06T06:55:41;98815.97;;;8.24;nan
26376;BME280;30544;42.196;24.336;2023-04-06T06:58:09;98811.16;;;8.31;nan
26376;BME280;30544;42.196;24.336;2023-04-06T07:00:36;98809.25;;;8.43;nan
26376;BME280;30544;42.196;24.336;2023-04-06T07:03:03;98808.16;;;8.44;nan
26376;BME280;30544;42.196;24.336;2023-04-06T07:05:30;98803.13;;;8.41;nan
26376;BME280;30544;42.196;24.336;2023-04-06T07:07:58;98801.63;;;8.62;nan
26376;BME280;30544;42.196;24.336;2023-04-06T07:10:25;98808.38;;;8.83;nan
26376;BME280;30544;42.196;24.336;2023-04-06T07:12:52;98807.41;;;8.49;nan
26376;BME280;30544;42.196;24.336;2023-04-06T07:15:19;98806.41;;;8.95;nan
26376;BME280;30544;42.196;24.336;2023-04-06T07:17:46;98796.59;;;8.59;nan
26376;BME280;30544;42.196;24.336;2023-04-06T07:20:13;98793.38;;;8.79;nan
26376;BME280;30544;42.196;24.336;2023-04-06T07:22:43;98795.66;;;8.82;nan
26376;BME280;30544;42.196;24.336;2023-04-06T07:25:11;98785.97;;;8.96;nan
26376;BME280;30544;42.196;24.336;2023-04-06T07:27:38;98790.41;;;8.68;nan
26376;BME280;30544;42.196;24.336;2023-04-06T07:30:06;98784.00;;;8.80;nan
26376;BME280;30544;42.196;24.336;2023-04-06T07:32:33;98788.06;;;9.05;nan
26376;BME280;30544;42.196;24.336;2023-04-06T07:35:01;98789.31;;;8.98;nan
26376;BME280;30544;42.196;24.336;2023-04-06T07:37:28;98788.75;;;8.96;nan
26376;BME280;30544;42.196;24.336;2023-04-06T07:39:55;98779.84;;;8.94;nan
26376;BME280;30544;42.196;24.336;2023-04-06T07:42:23;98786.06;;;8.72;nan
26376;BME280;30544;42.196;24.336;2023-04-06T07:44:50;98784.47;;;9.05;nan
26376;BME280;30544;42.196;24.336;2023-04-06T07:47:17;98781.34;;;9.47;nan
26376;BME280;30544;42.196;24.336;2023-04-06T07:49:43;98782.19;;;9.47;nan
26376;BME280;30544;42.196;24.336;2023-04-06T07:52:11;98780.44;;;9.58;nan
26376;BME280;30544;42.196;24.336;2023-04-06T07:54:37;98778.50;;;9.42;nan
26376;BME280;30544;42.196;24.336;2023-04-06T07:57:04;98781.25;;;9.25;nan
26376;BME280;30544;42.196;24.336;2023-04-06T07:59:32;98768.53;;;9.41;nan
26376;BME280;30544;42.196;24.336;2023-04-06T08:01:59;98781.69;;;9.50;nan
26376;BME280;30544;42.196;24.336;2023-04-06T08:04:27;98789.22;;;9.55;nan
26376;BME280;30544;42.196;24.336;2023-04-06T08:06:54;98777.50;;;9.48;nan
26376;BME280;30544;42.196;24.336;2023-04-06T08:09:21;98780.25;;;9.48;nan
26376;BME280;30544;42.196;24.336;2023-04-06T08:11:48;98769.44;;;9.63;nan
26376;BME280;30544;42.196;24.336;2023-04-06T08:14:15;98760.94;;;9.86;nan
26376;BME280;30544;42.196;24.336;2023-04-06T08:16:43;98773.28;;;9.79;nan
26376;BME280;30544;42.196;24.336;2023-04-06T08:19:10;98759.84;;;9.87;nan
26376;BME280;30544;42.196;24.336;2023-04-06T08:21:37;98760.28;;;9.79;nan
26376;BME280;30544;42.196;24.336;2023-04-06T08:24:05;98765.53;;;9.98;nan
26376;BME280;30544;42.196;24.336;2023-04-06T08:26:32;98765.03;;;9.84;nan
26376;BME280;30544;42.196;24.336;2023-04-06T08:28:59;98772.16;;;9.97;nan
26376;BME280;30544;42.196;24.336;2023-04-06T08:31:26;98763.13;;;10.23;nan
26376;BME280;30544;42.196;24.336;2023-04-06T08:33:54;98765.91;;;10.23;nan
26376;BME280;30544;42.196;24.336;2023-04-06T08:36:21;98754.59;;;10.08;nan
26376;BME280;30544;42.196;24.336;2023-04-06T08:38:49;98754.91;;;10.28;nan
26376;BME280;30544;42.196;24.336;2023-04-06T08:41:16;98760.97;;;10.69;nan
26376;BME280;30544;42.196;24.336;2023-04-06T08:43:46;98753.72;;;10.68;nan
26376;BME280;30544;42.196;24.336;2023-04-06T08:46:14;98742.44;;;10.74;nan
26376;BME280;30544;42.196;24.336;2023-04-06T08:48:42;98757.28;;;10.63;nan
26376;BME280;30544;42.196;24.336;2023-04-06T08:51:11;98758.19;;;10.69;nan
26376;BME280;30544;42.196;24.336;2023-04-06T08:53:38;98749.69;;;10.53;nan
26376;BME280;30544;42.196;24.336;2023-04-06T08:56:05;98752.06;;;10.67;nan
26376;BME280;30544;42.196;24.336;2023-04-06T08:58:35;98740.31;;;10.81;nan
26376;BME280;30544;42.196;24.336;2023-04-06T09:01:05;98736.16;;;10.84;nan
26376;BME280;30544;42.196;24.336;2023-04-06T09:03:37;98742.78;;;10.78;nan
26376;BME280;30544;42.196;24.336;2023-04-06T09:06:04;98730.09;;;10.87;nan
26376;BME280;30544;42.196;24.336;2023-04-06T09:08:34;98728.72;;;10.90;nan
26376;BME280;30544;42.196;24.336;2023-04-06T09:11:01;98732.16;;;10.75;nan
26376;BME280;30544;42.196;24.336;2023-04-06T09:13:29;98732.91;;;10.65;nan
26376;BME280;30544;42.196;24.336;2023-04-06T09:16:00;98724.75;;;10.80;nan
26376;BME280;30544;42.196;24.336;2023-04-06T09:18:30;98712.31;;;10.83;nan
26376;BME280;30544;42.196;24.336;2023-04-06T09:20:58;98709.78;;;10.81;nan
26376;BME280;30544;42.196;24.336;2023-04-06T09:23:25;98722.97;;;10.96;nan
26376;BME280;30544;42.196;24.336;2023-04-06T09:26:04;98704.94;;;10.45;nan
26376;BME280;30544;42.196;24.336;2023-04-06T09:28:41;98710.41;;;10.89;nan
26376;BME280;30544;42.196;24.336;2023-04-06T09:31:08;98699.53;;;10.82;nan
26376;BME280;30544;42.196;24.336;2023-04-06T09:33:38;98706.47;;;10.58;nan
26376;BME280;30544;42.196;24.336;2023-04-06T09:36:06;98699.66;;;10.92;nan
26376;BME280;30544;42.196;24.336;2023-04-06T09:38:36;98698.94;;;11.07;nan
26376;BME280;30544;42.196;24.336;2023-04-06T09:41:05;98683.38;;;11.06;nan
26376;BME280;30544;42.196;24.336;2023-04-06T09:43:32;98679.84;;;11.48;nan
26376;BME280;30544;42.196;24.336;2023-04-06T09:46:00;98685.59;;;11.36;nan
26376;BME280;30544;42.196;24.336;2023-04-06T09:48:31;98676.25;;;11.52;nan
26376;BME280;30544;42.196;24.336;2023-04-06T09:51:03;98677.88;;;11.43;nan
26376;BME280;30544;42.196;24.336;2023-04-06T09:53:31;98679.06;;;11.57;nan
26376;BME280;30544;42.196;24.336;2023-04-06T09:56:08;98674.50;;;11.41;nan
26376;BME280;30544;42.196;24.336;2023-04-06T09:58:39;98679.63;;;11.22;nan
26376;BME280;30544;42.196;24.336;2023-04-06T10:01:12;98680.00;;;11.31;nan
26376;BME280;30544;42.196;24.336;2023-04-06T10:03:45;98670.44;;;11.54;nan
26376;BME280;30544;42.196;24.336;2023-04-06T10:06:15;98678.63;;;11.75;nan
26376;BME280;30544;42.196;24.336;2023-04-06T10:08:45;98678.31;;;11.67;nan
26376;BME280;30544;42.196;24.336;2023-04-06T10:11:15;98667.78;;;11.74;nan
26376;BME280;30544;42.196;24.336;2023-04-06T10:13:43;98673.34;;;12.21;nan
26376;BME280;30544;42.196;24.336;2023-04-06T10:16:12;98683.97;;;12.29;nan
26376;BME280;30544;42.196;24.336;2023-04-06T10:18:42;98673.91;;;12.18;nan
26376;BME280;30544;42.196;24.336;2023-04-06T10:21:12;98674.53;;;12.41;nan
26376;BME280;30544;42.196;24.336;2023-04-06T10:23:44;98677.59;;;12.39;nan
26376;BME280;30544;42.196;24.336;2023-04-06T10:26:15;98670.13;;;12.50;nan
26376;BME280;30544;42.196;24.336;2023-04-06T10:28:44;98672.34;;;12.53;nan
26376;BME280;30544;42.196;24.336;2023-04-06T10:31:11;98676.84;;;12.74;nan
26376;BME280;30544;42.196;24.336;2023-04-06T10:33:39;98675.84;;;12.23;nan
26376;BME280;30544;42.196;24.336;2023-04-06T10:36:13;98659.56;;;12.47;nan
26376;BME280;30544;42.196;24.336;2023-04-06T10:38:41;98666.09;;;12.10;nan
26376;BME280;30544;42.196;24.336;2023-04-06T10:41:09;98673.63;;;12.15;nan
26376;BME280;30544;42.196;24.336;2023-04-06T10:43:38;98654.78;;;12.37;nan
26376;BME280;30544;42.196;24.336;2023-04-06T10:46:07;98667.84;;;12.37;nan
26376;BME280;30544;42.196;24.336;2023-04-06T10:48:37;98657.84;;;12.35;nan
26376;BME280;30544;42.196;24.336;2023-04-06T10:51:08;98653.63;;;12.23;nan
26376;BME280;30544;42.196;24.336;2023-04-06T10:53:36;98642.31;;;12.45;nan
26376;BME280;30544;42.196;24.336;2023-04-06T10:56:04;98650.53;;;12.14;nan
26376;BME280;30544;42.196;24.336;2023-04-06T10:58:38;98643.38;;;12.33;nan
26376;BME280;30544;42.196;24.336;2023-04-06T11:01:05;98637.25;;;12.26;nan
26376;BME280;30544;42.196;24.336;2023-04-06T11:03:42;98631.19;;;12.45;nan
26376;BME280;30544;42.196;24.336;2023-04-06T11:06:09;98621.69;;;12.41;nan
26376;BME280;30544;42.196;24.336;2023-04-06T11:08:36;98622.28;;;12.53;nan
26376;BME280;30544;42.196;24.336;2023-04-06T11:11:06;98613.66;;;12.59;nan
26376;BME280;30544;42.196;24.336;2023-04-06T11:13:40;98623.97;;;12.59;nan
26376;BME280;30544;42.196;24.336;2023-04-06T11:16:11;98612.34;;;12.77;nan
26376;BME280;30544;42.196;24.336;2023-04-06T11:18:45;98617.31;;;12.75;nan
26376;BME280;30544;42.196;24.336;2023-04-06T11:21:12;98604.81;;;12.78;nan
26376;BME280;30544;42.196;24.336;2023-04-06T11:23:39;98607.91;;;12.97;nan
26376;BME280;30544;42.196;24.336;2023-04-06T11:26:10;98631.22;;;12.70;nan
26376;BME280;30544;42.196;24.336;2023-04-06T11:28:39;98615.34;;;12.50;nan
26376;BME280;30544;42.196;24.336;2023-04-06T11:31:06;98605.38;;;12.95;nan
26376;BME280;30544;42.196;24.336;2023-04-06T11:33:35;98607.34;;;13.00;nan
26376;BME280;30544;42.196;24.336;2023-04-06T11:36:03;98594.25;;;13.10;nan
26376;BME280;30544;42.196;24.336;2023-04-06T11:38:30;98603.44;;;13.21;nan
26376;BME280;30544;42.196;24.336;2023-04-06T11:40:57;98598.16;;;12.94;nan
26376;BME280;30544;42.196;24.336;2023-04-06T11:43:28;98604.25;;;12.76;nan
26376;BME280;30544;42.196;24.336;2023-04-06T11:46:01;98600.84;;;12.28;nan
26376;BME280;30544;42.196;24.336;2023-04-06T11:48:29;98610.88;;;12.54;nan
26376;BME280;30544;42.196;24.336;2023-04-06T11:50:56;98613.09;;;12.42;nan
26376;BME280;30544;42.196;24.336;2023-04-06T11:53:24;98622.75;;;12.19;nan
26376;BME280;30544;42.196;24.336;2023-04-06T11:55:51;98606.41;;;12.38;nan
26376;BME280;30544;42.196;24.336;2023-04-06T11:58:18;98604.53;;;12.74;nan
26376;BME280;30544;42.196;24.336;2023-04-06T12:00:45;98605.94;;;12.87;nan
26376;BME280;30544;42.196;24.336;2023-04-06T12:03:13;98597.31;;;12.88;nan
26376;BME280;30544;42.196;24.336;2023-04-06T12:05:40;98609.81;;;12.71;nan
26376;BME280;30544;42.196;24.336;2023-04-06T12:08:07;98605.63;;;12.73;nan
26376;BME280;30544;42.196;24.336;2023-04-06T12:10:34;98597.03;;;13.00;nan
26376;BME280;30544;42.196;24.336;2023-04-06T12:13:01;98596.22;;;12.94;nan
26376;BME280;30544;42.196;24.336;2023-04-06T12:15:30;98607.59;;;12.73;nan
26376;BME280;30544;42.196;24.336;2023-04-06T12:17:57;98594.25;;;12.80;nan
26376;BME280;30544;42.196;24.336;2023-04-06T12:20:25;98596.75;;;12.97;nan
26376;BME280;30544;42.196;24.336;2023-04-06T12:22:52;98600.38;;;13.12;nan
26376;BME280;30544;42.196;24.336;2023-04-06T12:25:19;98612.06;;;12.84;nan
26376;BME280;30544;42.196;24.336;2023-04-06T12:27:46;98605.06;;;12.76;nan
26376;BME280;30544;42.196;24.336;2023-04-06T12:30:13;98581.72;;;12.82;nan
26376;BME280;30544;42.196;24.336;2023-04-06T12:32:40;98599.53;;;12.91;nan
26376;BME280;30544;42.196;24.336;2023-04-06T12:35:08;98613.97;;;12.63;nan
26376;BME280;30544;42.196;24.336;2023-04-06T12:37:38;98603.44;;;13.01;nan
26376;BME280;30544;42.196;24.336;2023-04-06T12:40:06;98605.66;;;12.83;nan
26376;BME280;30544;42.196;24.336;2023-04-06T12:42:33;98607.34;;;12.79;nan
26376;BME280;30544;42.196;24.336;2023-04-06T12:45:00;98597.28;;;12.73;nan
26376;BME280;30544;42.196;24.336;2023-04-06T12:47:27;98580.59;;;12.88;nan
26376;BME280;30544;42.196;24.336;2023-04-06T12:49:54;98594.53;;;12.99;nan
26376;BME280;30544;42.196;24.336;2023-04-06T12:52:21;98598.69;;;12.81;nan
26376;BME280;30544;42.196;24.336;2023-04-06T12:54:49;98584.50;;;13.13;nan
26376;BME280;30544;42.196;24.336;2023-04-06T12:57:16;98576.97;;;12.68;nan
26376;BME280;30544;42.196;24.336;2023-04-06T12:59:43;98586.19;;;13.24;nan
26376;BME280;30544;42.196;24.336;2023-04-06T13:02:11;98583.41;;;12.78;nan
26376;BME280;30544;42.196;24.336;2023-04-06T13:04:38;98582.00;;;12.81;nan
26376;BME280;30544;42.196;24.336;2023-04-06T13:07:05;98584.50;;;12.92;nan
26376;BME280;30544;42.196;24.336;2023-04-06T13:09:32;98576.69;;;12.74;nan
26376;BME280;30544;42.196;24.336;2023-04-06T13:12:01;98572.25;;;12.99;nan
26376;BME280;30544;42.196;24.336;2023-04-06T13:14:28;98574.78;;;13.20;nan
26376;BME280;30544;42.196;24.336;2023-04-06T13:16:56;98584.75;;;12.76;nan
26376;BME280;30544;42.196;24.336;2023-04-06T13:19:23;98568.06;;;12.76;nan